Time;durP1;ratioP1;P1;durP2;ratioP2;P2;SDS_P1;SDS_P2;PMS_P1;PMS_P2;Temp;Humidity;BMP_temperature;BMP_pressure;BME280_temperature;BME280_humidity;BME280_pressure;Samples;Min_cycle;Max_cycle;Signal;HPM_P1;HPM_P2
2023/12/25 00:00:05;;;;;;;0.90;0.60;;;9.90;99.90;;;;;;5078914;28;20475;-63
2023/12/25 00:02:33;;;;;;;1.00;0.70;;;9.90;99.90;;;;;;5078778;28;20449;-64
2023/12/25 00:05:00;;;;;;;2.97;0.90;;;9.90;99.90;;;;;;5077625;28;20559;-64
2023/12/25 00:07:26;;;;;;;4.00;0.90;;;9.90;99.90;;;;;;5075895;28;20518;-64
2023/12/25 00:09:53;;;;;;;1.13;0.83;;;9.90;99.90;;;;;;5075933;28;20965;-64
2023/12/25 00:12:20;;;;;;;2.73;0.90;;;9.90;99.90;;;;;;5077282;28;20512;-65
2023/12/25 00:14:47;;;;;;;0.80;0.63;;;9.80;99.90;;;;;;5078341;28;20440;-64
2023/12/25 00:17:16;;;;;;;1.00;0.90;;;9.80;99.90;;;;;;5080954;28;20492;-66
2023/12/25 00:19:43;;;;;;;2.00;1.07;;;9.80;99.90;;;;;;5079949;28;20452;-65
2023/12/25 00:22:09;;;;;;;1.60;0.90;;;9.90;99.90;;;;;;5080391;28;20444;-64
2023/12/25 00:24:40;;;;;;;2.80;0.77;;;9.90;99.90;;;;;;5080334;28;20489;-64
2023/12/25 00:27:09;;;;;;;1.60;0.70;;;9.80;99.90;;;;;;5079824;28;20498;-64
2023/12/25 00:29:36;;;;;;;12.00;1.23;;;9.90;99.90;;;;;;5085642;28;20484;-64
2023/12/25 00:32:03;;;;;;;2.20;1.03;;;9.80;99.90;;;;;;5086815;28;20777;-65
2023/12/25 00:34:31;;;;;;;1.30;0.83;;;9.80;99.90;;;;;;5086501;28;20477;-65
2023/12/25 00:36:58;;;;;;;2.90;1.00;;;9.90;99.90;;;;;;5079603;28;20532;-65
2023/12/25 00:39:25;;;;;;;1.47;0.80;;;9.80;99.90;;;;;;5079031;28;20478;-64
2023/12/25 00:41:52;;;;;;;4.30;1.37;;;9.80;99.90;;;;;;5079122;28;20762;-66
2023/12/25 00:44:18;;;;;;;4.47;0.90;;;9.90;99.90;;;;;;5077549;28;20456;-65
2023/12/25 00:46:45;;;;;;;3.43;1.10;;;9.90;99.90;;;;;;5077237;28;20554;-65
2023/12/25 00:49:14;;;;;;;1.43;0.90;;;10.00;99.90;;;;;;5077438;28;20524;-64
2023/12/25 00:51:42;;;;;;;1.83;1.00;;;10.10;99.90;;;;;;5077813;28;20464;-65
2023/12/25 00:54:09;;;;;;;1.23;0.90;;;10.10;99.90;;;;;;5079905;28;20993;-64
2023/12/25 00:56:35;;;;;;;2.80;1.43;;;10.10;99.90;;;;;;5079559;28;20548;-64
2023/12/25 00:59:02;;;;;;;1.43;1.03;;;10.10;99.90;;;;;;5078422;28;20460;-64
2023/12/25 01:01:29;;;;;;;6.13;1.30;;;10.20;99.90;;;;;;5076821;28;20507;-65
2023/12/25 01:03:57;;;;;;;2.33;0.90;;;10.20;99.90;;;;;;5077607;28;20939;-65
2023/12/25 01:06:23;;;;;;;0.90;0.70;;;10.20;99.90;;;;;;5077470;28;20489;-66
2023/12/25 01:08:52;;;;;;;2.73;1.27;;;10.20;99.90;;;;;;5078217;28;20440;-64
2023/12/25 01:11:19;;;;;;;1.20;0.77;;;10.20;99.90;;;;;;5079123;28;20580;-64
2023/12/25 01:13:45;;;;;;;8.40;1.20;;;10.20;99.90;;;;;;5077705;28;20470;-64
2023/12/25 01:16:12;;;;;;;4.43;1.00;;;10.20;99.90;;;;;;5077461;28;20488;-65
2023/12/25 01:18:39;;;;;;;2.80;1.20;;;10.20;99.90;;;;;;5076327;28;20492;-64
2023/12/25 01:21:06;;;;;;;4.20;1.37;;;10.20;99.90;;;;;;5074920;28;20497;-64
2023/12/25 01:23:35;;;;;;;4.40;1.00;;;10.20;99.90;;;;;;5074701;28;20516;-64
2023/12/25 01:26:03;;;;;;;4.80;1.23;;;10.20;99.90;;;;;;5074818;28;20479;-63
2023/12/25 01:28:30;;;;;;;1.30;0.90;;;10.10;99.90;;;;;;5074895;28;20507;-65
2023/12/25 01:30:57;;;;;;;2.73;1.40;;;10.20;99.90;;;;;;5074610;28;20565;-64
2023/12/25 01:33:24;;;;;;;1.20;0.80;;;10.20;99.90;;;;;;5075039;28;20523;-64
2023/12/25 01:35:51;;;;;;;4.73;1.20;;;10.20;99.90;;;;;;5076360;28;20525;-65
2023/12/25 01:38:17;;;;;;;1.50;0.90;;;10.30;99.90;;;;;;5077409;28;20531;-64
2023/12/25 01:40:45;;;;;;;1.50;1.00;;;10.30;99.90;;;;;;5078085;28;20462;-64
2023/12/25 01:43:13;;;;;;;2.10;1.00;;;10.30;99.90;;;;;;5084245;28;20571;-64
2023/12/25 01:45:40;;;;;;;3.40;1.30;;;10.30;99.90;;;;;;5084807;28;20470;-64
2023/12/25 01:48:07;;;;;;;5.87;1.13;;;10.30;99.90;;;;;;5084642;28;20457;-64
2023/12/25 01:50:34;;;;;;;4.33;1.07;;;10.30;99.90;;;;;;5083830;28;20572;-64
2023/12/25 01:53:01;;;;;;;2.53;0.80;;;10.30;99.90;;;;;;5080166;28;20803;-64
2023/12/25 01:55:28;;;;;;;4.37;1.10;;;10.30;99.90;;;;;;5078049;28;20818;-64
2023/12/25 01:57:55;;;;;;;2.67;1.17;;;10.30;99.90;;;;;;5076331;28;20480;-64
2023/12/25 02:00:23;;;;;;;6.73;1.37;;;10.30;99.90;;;;;;5076123;28;20525;-64
2023/12/25 02:02:51;;;;;;;3.27;1.63;;;10.30;99.90;;;;;;5076435;28;20470;-64
2023/12/25 02:05:18;;;;;;;2.90;0.90;;;10.20;99.90;;;;;;5076560;28;20541;-63
2023/12/25 02:07:47;;;;;;;6.47;1.30;;;10.20;99.90;;;;;;5075918;28;20522;-64
2023/12/25 02:10:26;;;;;;;1.10;0.90;;;10.30;99.90;;;;;;5076237;28;20646;-64
2023/12/25 02:12:53;;;;;;;2.33;1.60;;;10.20;99.90;;;;;;5078210;28;20476;-64
2023/12/25 02:15:20;;;;;;;1.60;1.20;;;10.20;99.90;;;;;;5081320;28;20533;-64
2023/12/25 02:17:50;;;;;;;3.40;1.10;;;10.20;99.90;;;;;;5080765;28;20496;-63
2023/12/25 02:20:17;;;;;;;3.47;1.20;;;10.20;99.90;;;;;;5080890;28;20519;-63
2023/12/25 02:22:44;;;;;;;2.20;1.20;;;10.20;99.90;;;;;;5083523;28;20547;-64
2023/12/25 02:25:15;;;;;;;8.27;1.17;;;10.30;99.90;;;;;;5088263;28;20493;-66
2023/12/25 02:27:43;;;;;;;2.97;1.50;;;10.30;99.90;;;;;;5085820;28;20475;-63
2023/12/25 02:30:10;;;;;;;5.70;1.20;;;10.30;99.90;;;;;;5084805;28;20580;-64
2023/12/25 02:32:37;;;;;;;6.10;1.23;;;10.40;99.90;;;;;;5082576;28;20849;-62
2023/12/25 02:35:05;;;;;;;2.90;1.13;;;10.40;99.90;;;;;;5081199;28;20448;-64
2023/12/25 02:37:34;;;;;;;3.50;1.73;;;10.40;99.90;;;;;;5080967;28;20462;-63
2023/12/25 02:40:01;;;;;;;3.33;1.10;;;10.50;99.90;;;;;;5077606;28;20538;-64
2023/12/25 02:42:28;;;;;;;3.43;1.10;;;10.50;99.90;;;;;;5077031;28;20526;-63
2023/12/25 02:44:56;;;;;;;2.80;1.53;;;10.50;99.90;;;;;;5077352;28;20473;-65
2023/12/25 02:47:23;;;;;;;10.40;1.23;;;10.50;99.90;;;;;;5077058;28;20466;-64
2023/12/25 02:49:50;;;;;;;1.10;0.90;;;10.60;99.90;;;;;;5077158;28;20488;-63
2023/12/25 02:52:17;;;;;;;1.53;1.00;;;10.60;99.90;;;;;;5076917;28;20557;-64
2023/12/25 02:54:43;;;;;;;2.57;1.10;;;10.60;99.90;;;;;;5077213;28;20425;-64
2023/12/25 02:57:10;;;;;;;4.00;1.43;;;10.60;99.90;;;;;;5076981;28;20574;-64
2023/12/25 02:59:37;;;;;;;1.33;1.03;;;10.60;99.90;;;;;;5076877;28;20956;-64
2023/12/25 03:02:06;;;;;;;1.93;1.63;;;10.60;99.90;;;;;;5076687;28;20967;-64
2023/12/25 03:04:32;;;;;;;4.20;1.90;;;10.60;99.90;;;;;;5076705;28;20433;-65
2023/12/25 03:06:59;;;;;;;0.90;0.67;;;10.60;99.90;;;;;;5076558;28;21061;-62
2023/12/25 03:09:26;;;;;;;3.20;1.17;;;10.60;99.90;;;;;;5076649;28;20475;-64
2023/12/25 03:11:53;;;;;;;1.30;1.10;;;10.60;99.90;;;;;;5076669;28;20483;-63
2023/12/25 03:14:20;;;;;;;7.03;0.97;;;10.60;99.90;;;;;;5076893;28;20490;-63
2023/12/25 03:16:47;;;;;;;6.00;2.03;;;10.50;99.90;;;;;;5076718;28;20525;-63
2023/12/25 03:19:15;;;;;;;3.73;1.10;;;10.60;99.90;;;;;;5076772;28;20472;-63
2023/12/25 03:21:43;;;;;;;3.60;1.20;;;10.50;99.90;;;;;;5076785;28;20973;-63
2023/12/25 03:24:10;;;;;;;2.17;1.10;;;10.50;99.90;;;;;;5078905;28;20485;-64
2023/12/25 03:26:37;;;;;;;1.67;1.10;;;10.50;99.90;;;;;;5077256;28;20441;-64
2023/12/25 03:29:04;;;;;;;4.20;1.13;;;10.30;99.90;;;;;;5076415;28;20537;-63
2023/12/25 03:31:32;;;;;;;1.10;1.00;;;10.30;99.90;;;;;;5076419;28;20473;-62
2023/12/25 03:33:59;;;;;;;1.20;0.97;;;10.30;99.90;;;;;;5076092;28;20477;-63
2023/12/25 03:36:28;;;;;;;1.30;1.20;;;10.20;99.90;;;;;;5076555;28;20449;-64
2023/12/25 03:38:54;;;;;;;1.33;1.20;;;10.20;99.90;;;;;;5076240;28;20506;-63
2023/12/25 03:41:21;;;;;;;2.50;1.53;;;10.10;99.90;;;;;;5076159;28;20489;-65
2023/12/25 03:43:48;;;;;;;3.57;1.20;;;10.10;99.90;;;;;;5075878;28;20560;-64
2023/12/25 03:46:15;;;;;;;4.20;1.40;;;10.10;99.90;;;;;;5075857;28;20529;-64
2023/12/25 03:48:43;;;;;;;1.83;1.10;;;10.10;99.90;;;;;;5076048;28;20498;-63
2023/12/25 03:51:09;;;;;;;2.40;0.90;;;10.00;99.90;;;;;;5075682;28;20540;-63
2023/12/25 03:53:38;;;;;;;3.00;1.00;;;10.00;99.90;;;;;;5075948;28;20516;-65
2023/12/25 03:56:07;;;;;;;4.70;1.40;;;10.00;99.90;;;;;;5075355;28;20940;-63
2023/12/25 03:58:34;;;;;;;2.50;1.37;;;10.00;99.90;;;;;;5075580;28;20484;-66
2023/12/25 04:01:02;;;;;;;2.80;1.00;;;10.00;99.90;;;;;;5075615;28;20441;-64
2023/12/25 04:03:28;;;;;;;6.20;2.60;;;10.00;99.90;;;;;;5075770;28;20572;-63
2023/12/25 04:05:55;;;;;;;2.87;0.90;;;10.00;99.90;;;;;;5075685;28;20484;-64
2023/12/25 04:08:24;;;;;;;3.17;1.17;;;10.00;99.90;;;;;;5075676;28;21009;-64
2023/12/25 04:10:52;;;;;;;1.23;0.87;;;10.00;99.90;;;;;;5075743;28;20584;-63
2023/12/25 04:13:19;;;;;;;3.43;1.00;;;10.00;99.90;;;;;;5075661;28;20501;-64
2023/12/25 04:15:46;;;;;;;5.43;1.77;;;10.10;99.90;;;;;;5076926;28;20466;-62
2023/12/25 04:18:13;;;;;;;1.00;0.90;;;10.10;99.90;;;;;;5077583;28;20556;-65
2023/12/25 04:20:40;;;;;;;2.40;1.33;;;10.10;99.90;;;;;;5077612;28;20497;-63
2023/12/25 04:23:07;;;;;;;1.60;1.20;;;10.20;99.90;;;;;;5075757;28;20440;-63
2023/12/25 04:25:34;;;;;;;1.10;1.00;;;10.20;99.90;;;;;;5077312;28;20524;-63
2023/12/25 04:28:03;;;;;;;2.13;1.33;;;10.20;99.90;;;;;;5096437;28;20483;-65
2023/12/25 04:30:30;;;;;;;1.33;1.03;;;10.20;99.90;;;;;;5096325;28;20426;-63
2023/12/25 04:32:57;;;;;;;1.77;1.37;;;10.20;99.90;;;;;;5096457;28;20467;-64
2023/12/25 04:35:24;;;;;;;1.67;1.57;;;10.20;99.90;;;;;;5096812;28;20445;-63
2023/12/25 04:37:51;;;;;;;2.60;1.03;;;10.30;99.90;;;;;;5097386;28;20487;-65
2023/12/25 04:40:17;;;;;;;3.60;0.93;;;10.30;99.90;;;;;;5097136;28;20456;-64
2023/12/25 04:42:44;;;;;;;0.93;0.80;;;10.30;99.90;;;;;;5095592;28;20473;-63
2023/12/25 04:45:13;;;;;;;1.90;1.00;;;10.30;99.90;;;;;;5096109;28;20470;-63
2023/12/25 04:47:39;;;;;;;1.83;1.17;;;10.40;99.90;;;;;;5096194;28;20443;-65
2023/12/25 04:50:07;;;;;;;2.40;1.00;;;10.50;99.90;;;;;;5095964;28;20475;-63
2023/12/25 04:52:34;;;;;;;1.20;0.80;;;10.50;99.90;;;;;;5095584;28;20489;-62
2023/12/25 04:55:01;;;;;;;1.77;0.97;;;10.60;99.90;;;;;;5094601;28;20442;-63
2023/12/25 04:57:30;;;;;;;3.00;1.00;;;10.60;99.90;;;;;;5094878;28;20457;-63
2023/12/25 04:59:57;;;;;;;1.20;0.87;;;10.70;99.90;;;;;;5094759;28;20484;-63
2023/12/25 05:02:28;;;;;;;4.30;1.10;;;10.70;99.90;;;;;;5095159;28;20490;-61
2023/12/25 05:04:54;;;;;;;3.23;1.13;;;10.70;99.90;;;;;;5094752;28;20484;-64
2023/12/25 05:07:21;;;;;;;1.13;0.93;;;10.70;99.90;;;;;;5094929;28;20463;-63
2023/12/25 05:09:48;;;;;;;2.50;1.07;;;10.80;99.90;;;;;;5095041;28;20463;-62
2023/12/25 05:12:15;;;;;;;1.27;0.80;;;10.80;99.90;;;;;;5095265;28;20483;-63
2023/12/25 05:14:42;;;;;;;1.10;0.80;;;10.80;99.90;;;;;;5094932;28;20500;-64
2023/12/25 05:17:09;;;;;;;1.00;0.87;;;10.80;99.90;;;;;;5095876;28;20448;-65
2023/12/25 05:19:37;;;;;;;1.57;1.20;;;10.80;99.90;;;;;;5096051;28;20458;-64
2023/12/25 05:22:05;;;;;;;1.47;0.90;;;10.80;99.90;;;;;;5094638;28;20437;-62
2023/12/25 05:24:32;;;;;;;2.80;1.20;;;10.90;99.90;;;;;;5093782;28;20460;-63
2023/12/25 05:26:59;;;;;;;2.37;1.20;;;10.90;99.90;;;;;;5094198;28;20458;-63
2023/12/25 05:29:26;;;;;;;3.30;1.50;;;10.90;99.90;;;;;;5093972;28;20469;-63
2023/12/25 05:31:53;;;;;;;3.50;1.20;;;10.90;99.90;;;;;;5094483;28;20462;-64
2023/12/25 05:34:19;;;;;;;3.00;1.30;;;10.90;99.90;;;;;;5094238;28;20472;-62
2023/12/25 05:36:50;;;;;;;1.33;1.10;;;10.90;99.90;;;;;;5094584;28;20425;-63
2023/12/25 05:39:18;;;;;;;2.47;1.20;;;10.90;99.90;;;;;;5094166;28;20526;-62
2023/12/25 05:41:45;;;;;;;2.73;1.20;;;10.90;99.90;;;;;;5094571;28;20435;-64
2023/12/25 05:44:12;;;;;;;1.93;1.10;;;11.00;99.90;;;;;;5095002;28;20483;-63
2023/12/25 05:46:41;;;;;;;4.07;1.10;;;11.00;99.90;;;;;;5095173;28;20441;-64
2023/12/25 05:49:08;;;;;;;2.80;1.47;;;11.00;99.90;;;;;;5096801;28;20459;-62
2023/12/25 05:51:35;;;;;;;3.10;0.90;;;11.00;99.90;;;;;;5099361;28;20474;-64
2023/12/25 05:54:03;;;;;;;1.70;1.13;;;11.00;99.90;;;;;;5098356;28;20453;-65
2023/12/25 05:56:30;;;;;;;1.33;0.97;;;11.00;99.90;;;;;;5098316;28;20465;-61
2023/12/25 05:58:59;;;;;;;2.07;1.10;;;11.10;99.90;;;;;;5099130;28;20446;-63
2023/12/25 06:01:31;;;;;;;3.00;1.33;;;11.10;99.90;;;;;;5099605;28;20436;-64
2023/12/25 06:04:00;;;;;;;4.47;2.33;;;11.10;99.90;;;;;;5099282;28;20425;-63
2023/12/25 06:06:27;;;;;;;2.30;1.30;;;11.10;99.90;;;;;;5095590;28;20488;-65
2023/12/25 06:08:56;;;;;;;4.50;1.30;;;11.10;99.90;;;;;;5094753;28;20491;-61
2023/12/25 06:11:24;;;;;;;1.77;1.30;;;11.20;99.90;;;;;;5091729;28;20481;-64
2023/12/25 06:13:51;;;;;;;1.87;1.20;;;11.20;99.90;;;;;;5078018;28;20722;-63
2023/12/25 06:16:18;;;;;;;3.70;1.17;;;11.30;99.90;;;;;;5077758;28;20532;-64
2023/12/25 06:18:45;;;;;;;7.33;1.60;;;11.20;99.90;;;;;;5078020;28;20978;-65
2023/12/25 06:21:14;;;;;;;2.30;0.90;;;11.20;99.90;;;;;;5077748;28;20798;-63
2023/12/25 06:23:41;;;;;;;1.87;1.10;;;11.30;99.90;;;;;;5077799;28;20449;-64
2023/12/25 06:26:08;;;;;;;3.97;1.20;;;11.30;99.90;;;;;;5077656;28;20469;-63
2023/12/25 06:28:37;;;;;;;1.43;0.93;;;11.30;99.90;;;;;;5077486;28;20457;-63
2023/12/25 06:31:04;;;;;;;1.13;0.87;;;11.30;99.90;;;;;;5077345;28;20469;-65
2023/12/25 06:33:30;;;;;;;2.33;1.27;;;11.30;99.90;;;;;;5077653;28;20443;-63
2023/12/25 06:35:57;;;;;;;1.63;1.20;;;11.30;99.90;;;;;;5077527;28;20505;-63
2023/12/25 06:38:30;;;;;;;1.37;1.00;;;11.30;99.90;;;;;;5077313;28;20919;-63
2023/12/25 06:40:58;;;;;;;4.33;1.40;;;11.30;99.90;;;;;;5077199;28;20942;-64
2023/12/25 06:43:25;;;;;;;3.33;1.07;;;11.30;99.90;;;;;;5084712;28;20473;-62
2023/12/25 06:45:56;;;;;;;1.60;0.83;;;11.30;99.90;;;;;;5085205;28;20806;-62
2023/12/25 06:48:23;;;;;;;1.87;1.10;;;11.30;99.90;;;;;;5083897;28;20912;-65
2023/12/25 06:50:50;;;;;;;3.00;1.10;;;11.30;99.90;;;;;;5079059;28;20466;-64
2023/12/25 06:53:16;;;;;;;1.30;1.20;;;11.30;99.90;;;;;;5078941;28;20569;-63
2023/12/25 06:55:43;;;;;;;2.50;0.90;;;11.30;99.90;;;;;;5077918;28;20467;-63
2023/12/25 06:58:10;;;;;;;4.60;1.90;;;11.30;99.90;;;;;;5076921;28;20460;-63
2023/12/25 07:00:37;;;;;;;2.40;1.13;;;11.30;99.90;;;;;;5076657;28;20469;-62
2023/12/25 07:03:06;;;;;;;3.67;2.13;;;11.30;99.90;;;;;;5077104;28;20732;-63
2023/12/25 07:05:34;;;;;;;3.43;1.50;;;11.30;99.90;;;;;;5076594;28;20505;-64
2023/12/25 07:08:00;;;;;;;2.03;1.93;;;11.40;99.90;;;;;;5076783;28;20441;-63
2023/12/25 07:10:27;;;;;;;2.40;0.90;;;11.30;99.90;;;;;;5076831;28;20541;-64
2023/12/25 07:12:54;;;;;;;1.80;1.40;;;11.30;99.90;;;;;;5076838;28;20573;-63
2023/12/25 07:15:21;;;;;;;2.90;1.13;;;11.30;99.90;;;;;;5076462;28;20487;-65
2023/12/25 07:17:48;;;;;;;1.07;0.80;;;11.30;99.90;;;;;;5076741;28;20431;-66
2023/12/25 07:20:16;;;;;;;1.93;0.93;;;11.30;99.90;;;;;;5076499;28;20527;-63
2023/12/25 07:22:43;;;;;;;1.87;0.80;;;11.30;99.90;;;;;;5076674;28;20539;-65
2023/12/25 07:25:10;;;;;;;3.10;1.00;;;11.30;99.90;;;;;;5077734;28;20485;-63
2023/12/25 07:27:37;;;;;;;7.77;1.83;;;11.20;99.90;;;;;;5079885;28;20445;-63
2023/12/25 07:30:06;;;;;;;3.77;1.20;;;11.20;99.90;;;;;;5096538;28;20445;-64
2023/12/25 07:32:33;;;;;;;1.13;0.90;;;11.30;99.90;;;;;;5097644;28;20541;-64
2023/12/25 07:35:00;;;;;;;1.30;0.87;;;11.20;99.90;;;;;;5097535;28;20452;-62
2023/12/25 07:37:29;;;;;;;2.40;0.90;;;11.20;99.90;;;;;;5097185;28;20482;-63
2023/12/25 07:39:56;;;;;;;4.27;1.10;;;11.20;99.90;;;;;;5097121;28;20453;-64
2023/12/25 07:42:23;;;;;;;1.43;0.90;;;11.20;99.90;;;;;;5086995;28;20970;-65
2023/12/25 07:44:49;;;;;;;1.43;0.80;;;11.20;99.90;;;;;;5077926;28;20527;-62
2023/12/25 07:47:15;;;;;;;3.10;1.30;;;11.10;99.90;;;;;;5075882;28;20903;-63
2023/12/25 07:49:42;;;;;;;4.60;1.23;;;11.10;99.90;;;;;;5075946;28;20451;-63
2023/12/25 07:52:09;;;;;;;6.70;1.50;;;11.10;99.90;;;;;;5077453;28;20520;-65
2023/12/25 07:54:37;;;;;;;7.23;1.67;;;11.10;99.90;;;;;;5075971;28;20493;-62
2023/12/25 07:57:04;;;;;;;3.13;1.10;;;11.10;99.90;;;;;;5076207;28;21044;-61
2023/12/25 07:59:31;;;;;;;1.73;1.10;;;11.10;99.90;;;;;;5081030;28;20480;-63
2023/12/25 08:01:58;;;;;;;2.53;1.20;;;11.10;99.90;;;;;;5082538;28;20470;-63
2023/12/25 08:04:25;;;;;;;2.87;1.30;;;11.10;99.90;;;;;;5083038;28;20491;-64
2023/12/25 08:06:52;;;;;;;5.67;1.93;;;11.20;99.90;;;;;;5082051;28;20491;-64
2023/12/25 08:09:22;;;;;;;1.57;1.10;;;11.20;99.90;;;;;;5080759;28;20533;-63
2023/12/25 08:11:51;;;;;;;3.30;1.27;;;11.10;99.90;;;;;;5077651;28;20988;-64
2023/12/25 08:14:17;;;;;;;1.97;0.90;;;11.10;99.90;;;;;;5077810;28;20434;-64
2023/12/25 08:16:48;;;;;;;2.50;1.23;;;11.10;99.90;;;;;;5075603;28;20545;-64
2023/12/25 08:19:15;;;;;;;5.80;1.20;;;11.20;99.90;;;;;;5075422;28;20859;-63
2023/12/25 08:21:42;;;;;;;1.97;1.10;;;11.10;99.90;;;;;;5075338;28;20531;-64
2023/12/25 08:24:09;;;;;;;1.33;0.93;;;11.10;99.90;;;;;;5075399;28;20426;-65
2023/12/25 08:26:36;;;;;;;2.70;1.00;;;11.10;99.90;;;;;;5075110;28;20564;-61
2023/12/25 08:29:04;;;;;;;2.70;1.40;;;11.10;99.90;;;;;;5075921;28;20433;-62
2023/12/25 08:31:31;;;;;;;2.80;1.40;;;11.10;99.90;;;;;;5076235;28;20967;-64
2023/12/25 08:33:57;;;;;;;4.20;1.07;;;11.10;99.90;;;;;;5076636;28;20915;-65
2023/12/25 08:36:24;;;;;;;4.40;1.00;;;11.10;99.90;;;;;;5081031;28;20441;-64
2023/12/25 08:38:50;;;;;;;2.87;0.97;;;11.10;99.90;;;;;;5083554;28;20270;-64
2023/12/25 08:41:17;;;;;;;1.30;0.97;;;11.10;99.90;;;;;;5083034;28;20533;-64
2023/12/25 08:43:44;;;;;;;6.40;1.20;;;11.10;99.90;;;;;;5077566;28;20451;-63
2023/12/25 08:46:12;;;;;;;5.23;1.10;;;11.10;99.90;;;;;;5075615;28;20473;-63
2023/12/25 08:48:39;;;;;;;1.67;1.00;;;11.10;99.90;;;;;;5075062;28;20535;-65
2023/12/25 08:51:06;;;;;;;1.00;0.70;;;11.10;99.90;;;;;;5075145;28;20546;-63
2023/12/25 08:53:33;;;;;;;1.10;0.73;;;11.10;99.90;;;;;;5075004;28;20516;-66
2023/12/25 08:56:01;;;;;;;8.00;1.77;;;11.10;99.90;;;;;;5074762;28;20450;-64
2023/12/25 08:58:29;;;;;;;1.37;0.70;;;11.10;99.90;;;;;;5074779;28;20489;-64
2023/12/25 09:00:56;;;;;;;4.30;1.10;;;11.10;99.90;;;;;;5074706;28;20456;-64
2023/12/25 09:03:24;;;;;;;1.27;1.17;;;11.10;99.90;;;;;;5074640;28;20892;-63
2023/12/25 09:05:51;;;;;;;3.97;2.13;;;11.10;99.90;;;;;;5079025;28;20556;-63
2023/12/25 09:08:18;;;;;;;1.33;1.03;;;11.10;99.90;;;;;;5082670;28;20476;-63
2023/12/25 09:10:45;;;;;;;2.17;1.73;;;11.10;99.90;;;;;;5082611;28;20445;-64
2023/12/25 09:13:14;;;;;;;6.60;1.37;;;11.10;99.90;;;;;;5077455;28;20536;-64
2023/12/25 09:15:41;;;;;;;1.03;0.80;;;11.10;99.90;;;;;;5074904;28;20533;-65
2023/12/25 09:18:08;;;;;;;1.90;1.00;;;11.10;99.90;;;;;;5074822;28;20479;-64
2023/12/25 09:20:36;;;;;;;2.93;0.87;;;11.10;99.90;;;;;;5074890;28;20434;-62
2023/12/25 09:23:04;;;;;;;3.20;0.90;;;11.10;99.90;;;;;;5075505;28;20565;-64
2023/12/25 09:25:31;;;;;;;4.53;0.90;;;11.00;99.90;;;;;;5078631;28;20801;-64
2023/12/25 09:27:57;;;;;;;2.77;1.00;;;11.10;99.90;;;;;;5078480;28;20508;-65
2023/12/25 09:30:24;;;;;;;3.30;1.10;;;11.00;99.90;;;;;;5078737;28;20536;-65
2023/12/25 09:32:51;;;;;;;3.40;1.80;;;11.10;99.90;;;;;;5078379;28;20525;-64
2023/12/25 09:35:22;;;;;;;2.10;1.20;;;11.10;99.90;;;;;;5079505;28;20537;-64
2023/12/25 09:37:50;;;;;;;1.43;0.80;;;11.10;99.90;;;;;;5082253;28;20494;-64
2023/12/25 09:40:17;;;;;;;3.20;0.90;;;11.10;99.90;;;;;;5082332;28;20898;-65
2023/12/25 09:42:45;;;;;;;4.20;1.90;;;11.10;99.90;;;;;;5082794;28;20496;-65
2023/12/25 09:45:14;;;;;;;3.87;1.53;;;11.10;99.90;;;;;;5081395;28;20521;-63
2023/12/25 09:47:42;;;;;;;3.93;1.17;;;11.10;99.90;;;;;;5078303;28;20546;-65
2023/12/25 09:50:09;;;;;;;1.97;1.23;;;11.10;99.90;;;;;;5078616;28;20429;-64
2023/12/25 09:52:36;;;;;;;3.53;1.17;;;11.10;99.90;;;;;;5077965;28;20516;-63
2023/12/25 09:55:05;;;;;;;1.10;0.97;;;11.10;99.90;;;;;;5077989;28;20438;-63
2023/12/25 09:57:34;;;;;;;4.70;1.70;;;11.10;99.90;;;;;;5078040;28;20819;-64
2023/12/25 10:00:03;;;;;;;2.67;1.10;;;11.20;99.90;;;;;;5078207;28;20484;-65
2023/12/25 10:02:30;;;;;;;2.30;1.13;;;11.30;99.90;;;;;;5077735;28;20813;-62
2023/12/25 10:04:57;;;;;;;2.07;0.97;;;11.30;99.90;;;;;;5078067;28;20466;-66
2023/12/25 10:07:24;;;;;;;0.90;0.77;;;11.40;99.90;;;;;;5077788;28;20544;-64
2023/12/25 10:09:54;;;;;;;3.93;1.30;;;11.40;99.90;;;;;;5096731;28;20426;-64
2023/12/25 10:12:22;;;;;;;4.10;1.30;;;11.40;99.90;;;;;;5099850;28;20538;-64
2023/12/25 10:14:49;;;;;;;6.40;1.20;;;11.30;99.90;;;;;;5097902;28;20445;-64
2023/12/25 10:17:17;;;;;;;7.63;1.43;;;11.30;99.90;;;;;;5084262;28;20520;-64
2023/12/25 10:19:52;;;;;;;2.93;1.60;;;11.30;99.90;;;;;;5084149;28;20766;-64
2023/12/25 10:22:30;;;;;;;4.90;1.60;;;13.10;99.90;;;;;;5081616;28;20455;-63
2023/12/25 10:25:06;;;;;;;3.50;1.60;;;11.40;99.90;;;;;;5077802;28;20472;-64
2023/12/25 10:27:34;;;;;;;1.50;1.10;;;11.40;99.90;;;;;;5077746;28;20510;-64
2023/12/25 10:30:03;;;;;;;2.30;2.10;;;11.40;99.90;;;;;;5077379;28;20944;-64
2023/12/25 10:32:30;;;;;;;4.83;1.30;;;11.40;99.90;;;;;;5077508;28;20483;-63
2023/12/25 10:35:10;;;;;;;2.00;1.27;;;11.30;99.90;;;;;;5077567;28;20451;-65
2023/12/25 10:37:39;;;;;;;5.33;1.50;;;11.30;99.90;;;;;;5077928;28;20540;-65
2023/12/25 10:40:20;;;;;;;4.40;1.60;;;11.30;99.90;;;;;;5077150;28;20435;-68
2023/12/25 10:42:50;;;;;;;2.70;1.20;;;11.30;99.90;;;;;;5077305;28;20525;-65
2023/12/25 10:45:21;;;;;;;4.30;1.77;;;11.30;99.90;;;;;;5077314;28;20541;-64
2023/12/25 10:47:51;;;;;;;1.90;1.30;;;11.30;99.90;;;;;;5077196;28;20425;-65
2023/12/25 10:50:21;;;;;;;2.53;1.20;;;11.30;99.90;;;;;;5077156;28;20862;-63
2023/12/25 10:52:50;;;;;;;2.43;1.17;;;11.40;99.90;;;;;;5077099;28;20494;-65
2023/12/25 10:55:24;;;;;;;4.43;1.70;;;11.30;99.90;;;;;;5077257;28;20445;-65
2023/12/25 10:57:53;;;;;;;3.77;1.30;;;11.30;99.90;;;;;;5077292;28;20442;-64
2023/12/25 11:00:23;;;;;;;1.83;1.00;;;11.30;99.90;;;;;;5077574;28;20532;-64
2023/12/25 11:02:55;;;;;;;1.93;1.60;;;11.30;99.90;;;;;;5076727;28;20509;-64
2023/12/25 11:05:22;;;;;;;2.70;1.37;;;11.30;99.90;;;;;;5076825;28;20468;-64
2023/12/25 11:07:50;;;;;;;3.37;1.27;;;11.40;99.90;;;;;;5078498;28;20519;-65
2023/12/25 11:10:17;;;;;;;3.93;1.53;;;11.40;99.90;;;;;;5077985;28;20548;-63
2023/12/25 11:12:44;;;;;;;3.30;1.33;;;11.40;99.90;;;;;;5078928;28;20567;-64
2023/12/25 11:15:13;;;;;;;3.20;1.23;;;11.40;99.90;;;;;;5078014;28;20507;-64
2023/12/25 11:17:43;;;;;;;1.10;1.00;;;11.40;99.90;;;;;;5077030;28;20489;-64
2023/12/25 11:20:11;;;;;;;1.40;1.00;;;11.50;99.90;;;;;;5076591;28;20465;-64
2023/12/25 11:22:41;;;;;;;2.13;1.20;;;11.40;99.90;;;;;;5076422;28;20450;-65
2023/12/25 11:25:14;;;;;;;2.23;2.00;;;11.40;99.90;;;;;;5076305;28;20505;-65
2023/12/25 11:27:42;;;;;;;1.90;1.60;;;11.50;99.90;;;;;;5076471;28;20449;-66
2023/12/25 11:30:12;;;;;;;5.13;1.90;;;11.50;99.90;;;;;;5076293;28;20465;-65
2023/12/25 11:32:45;;;;;;;5.20;1.63;;;11.50;99.90;;;;;;5076416;28;20480;-65
2023/12/25 11:35:12;;;;;;;2.33;1.40;;;11.50;99.90;;;;;;5076578;28;20780;-66
2023/12/25 11:37:40;;;;;;;2.77;1.20;;;11.50;99.90;;;;;;5076309;28;20550;-65
2023/12/25 11:40:12;;;;;;;5.10;1.53;;;11.50;99.90;;;;;;5076257;28;20468;-66
2023/12/25 11:42:42;;;;;;;3.33;1.30;;;11.50;99.90;;;;;;5077885;28;20466;-66
2023/12/25 11:45:10;;;;;;;1.30;1.03;;;11.60;99.90;;;;;;5076256;28;20477;-65
2023/12/25 11:47:43;;;;;;;3.37;1.43;;;11.60;99.90;;;;;;5074957;28;20456;-64
2023/12/25 11:50:11;;;;;;;5.57;1.23;;;11.80;99.90;;;;;;5075857;28;20560;-66
2023/12/25 11:52:53;;;;;;;3.17;1.50;;;11.80;99.90;;;;;;5075757;28;20512;-66
2023/12/25 11:55:22;;;;;;;5.73;1.20;;;11.80;99.90;;;;;;5076067;28;20470;-67
2023/12/25 11:57:49;;;;;;;7.00;1.60;;;11.90;99.90;;;;;;5075950;28;20467;-65
2023/12/25 12:00:19;;;;;;;2.97;1.90;;;11.90;99.90;;;;;;5075641;28;20938;-63
2023/12/25 12:02:46;;;;;;;2.83;1.30;;;11.80;99.90;;;;;;5075691;28;20532;-66
2023/12/25 12:05:13;;;;;;;3.30;1.40;;;11.70;99.90;;;;;;5075488;28;20856;-66
2023/12/25 12:07:40;;;;;;;9.50;1.30;;;11.60;99.90;;;;;;5075487;28;20977;-66
2023/12/25 12:10:08;;;;;;;4.10;1.47;;;11.50;99.90;;;;;;5075931;28;20462;-65
2023/12/25 12:12:36;;;;;;;4.40;1.20;;;11.40;99.90;;;;;;5077008;28;20493;-65
2023/12/25 12:15:04;;;;;;;3.23;1.63;;;11.40;99.90;;;;;;5076255;28;20499;-67
2023/12/25 12:17:32;;;;;;;2.50;1.40;;;11.40;99.90;;;;;;5075457;28;20448;-65
2023/12/25 12:20:00;;;;;;;2.90;1.43;;;11.50;99.90;;;;;;5075543;28;20577;-62
2023/12/25 12:22:27;;;;;;;1.73;1.20;;;11.60;99.90;;;;;;5075416;28;20446;-64
2023/12/25 12:25:09;;;;;;;2.50;1.30;;;11.60;99.90;;;;;;5075564;28;20570;-66
2023/12/25 12:27:35;;;;;;;3.70;2.03;;;11.70;99.90;;;;;;5075105;28;20489;-65
2023/12/25 12:30:02;;;;;;;3.40;1.80;;;11.10;99.90;;;;;;5075306;28;20542;-65
2023/12/25 12:32:29;;;;;;;3.90;1.40;;;11.60;99.90;;;;;;5075375;28;20891;-65
2023/12/25 12:34:59;;;;;;;4.27;1.60;;;11.50;99.90;;;;;;5075185;28;20535;-64
2023/12/25 12:37:26;;;;;;;5.00;2.00;;;11.50;99.90;;;;;;5074983;28;20532;-66
2023/12/25 12:39:53;;;;;;;3.33;1.53;;;11.50;99.90;;;;;;5075044;28;20493;-65
2023/12/25 12:42:22;;;;;;;2.67;1.20;;;11.50;99.90;;;;;;5074973;28;20434;-65
2023/12/25 12:44:49;;;;;;;4.30;1.47;;;11.50;99.90;;;;;;5074944;28;20438;-65
2023/12/25 12:47:16;;;;;;;3.70;1.27;;;11.50;99.90;;;;;;5075033;28;20460;-65
2023/12/25 12:49:43;;;;;;;3.90;1.33;;;11.50;99.90;;;;;;5074758;28;20475;-65